createdAt,value
2022-08-04T00:00:43.373Z,36.50
2022-08-04T00:03:20.377Z,36.60
2022-08-04T00:05:58.934Z,45.80
2022-08-04T00:08:42.665Z,36.60
2022-08-04T00:11:15.828Z,36.60
2022-08-04T00:13:58.722Z,36.70
2022-08-04T00:16:34.918Z,36.80
2022-08-04T00:19:08.944Z,45.80
2022-08-04T00:21:40.469Z,37.10
2022-08-04T00:24:11.831Z,51.60
2022-08-04T00:26:42.779Z,47.30
2022-08-04T00:29:11.499Z,47.40
2022-08-04T00:31:56.014Z,38.70
2022-08-04T00:34:27.611Z,48.40
2022-08-04T00:36:56.910Z,38.30
2022-08-04T00:42:30.155Z,38.60
2022-08-04T00:45:13.347Z,49.30
2022-08-04T00:47:57.842Z,50.00
2022-08-04T00:50:35.351Z,38.90
2022-08-04T00:53:11.272Z,39.00
2022-08-04T00:56:06.411Z,49.80
2022-08-04T00:58:47.495Z,39.70
2022-08-04T01:01:30.230Z,50.50
2022-08-04T01:04:05.487Z,39.90
2022-08-04T01:06:38.685Z,40.20
2022-08-04T01:09:25.327Z,40.30
2022-08-04T01:12:15.097Z,51.00
2022-08-04T01:14:57.837Z,51.50
2022-08-04T01:17:29.762Z,51.00
2022-08-04T01:20:06.001Z,51.30
2022-08-04T01:23:04.141Z,51.30
2022-08-04T01:25:53.765Z,52.10
2022-08-04T01:28:49.647Z,42.10
2022-08-04T01:31:27.075Z,42.10
2022-08-04T01:34:04.429Z,43.30
2022-08-04T01:36:35.645Z,52.90
2022-08-04T01:39:25.824Z,42.80
2022-08-04T01:41:58.358Z,53.10
2022-08-04T01:44:29.391Z,52.80
2022-08-04T01:47:01.562Z,54.30
2022-08-04T01:49:40.030Z,53.00
2022-08-04T01:52:12.106Z,53.60
2022-08-04T01:54:43.126Z,43.10
2022-08-04T01:57:37.540Z,43.10
2022-08-04T02:00:00.837Z,53.30
2022-08-04T02:02:30.468Z,53.00
2022-08-04T02:04:58.582Z,53.60
2022-08-04T02:07:52.312Z,42.60
2022-08-04T02:10:30.345Z,42.70
2022-08-04T02:13:12.688Z,58.30
2022-08-04T02:15:54.548Z,53.90
2022-08-04T02:18:28.746Z,54.40
2022-08-04T02:20:59.626Z,54.30
2022-08-04T02:23:35.872Z,48.80
2022-08-04T02:26:06.275Z,55.30
2022-08-04T02:28:41.627Z,54.00
2022-08-04T02:31:15.662Z,43.90
2022-08-04T02:33:47.304Z,54.60
2022-08-04T02:36:22.236Z,58.40
2022-08-04T02:38:57.447Z,55.80
2022-08-04T02:41:28.008Z,55.40
2022-08-04T02:43:58.717Z,55.30
2022-08-04T02:46:26.995Z,55.60
2022-08-04T02:48:57.371Z,44.90
2022-08-04T02:51:28.493Z,55.80
2022-08-04T02:53:59.004Z,55.70
2022-08-04T02:56:29.952Z,56.20
2022-08-04T02:59:01.216Z,54.90
2022-08-04T03:04:24.176Z,54.70
2022-08-04T03:07:25.171Z,44.50
2022-08-04T03:10:41.258Z,59.80
2022-08-04T03:13:32.652Z,44.90
2022-08-04T03:16:30.759Z,45.40
2022-08-04T03:19:35.635Z,45.50
2022-08-04T03:22:28.985Z,56.30
2022-08-04T03:25:29.764Z,46.00
2022-08-04T03:28:32.909Z,46.90
2022-08-04T03:31:24.687Z,57.90
2022-08-04T03:34:09.365Z,58.60
2022-08-04T03:37:04.187Z,58.80
2022-08-04T03:40:10.768Z,59.50
2022-08-04T03:43:57.690Z,60.60
2022-08-04T03:46:40.853Z,60.10
2022-08-04T03:49:42.156Z,60.10
2022-08-04T03:52:52.367Z,60.00
2022-08-04T03:55:47.782Z,49.00
2022-08-04T03:58:40.576Z,60.20
2022-08-04T04:01:24.438Z,48.70
2022-08-04T04:04:11.197Z,48.50
2022-08-04T04:07:12.283Z,59.40
2022-08-04T04:10:06.165Z,59.70
2022-08-04T04:13:14.532Z,49.60
2022-08-04T04:15:58.658Z,64.90
2022-08-04T04:18:58.004Z,61.40
2022-08-04T04:21:39.049Z,53.80
2022-08-04T04:24:34.022Z,60.90
2022-08-04T04:27:16.637Z,59.90
2022-08-04T04:30:08.062Z,60.30
2022-08-04T04:33:08.815Z,60.80
2022-08-04T04:35:47.945Z,49.30
2022-08-04T04:38:42.501Z,49.10
2022-08-04T04:41:31.260Z,61.30
2022-08-04T04:44:31.011Z,61.10
2022-08-04T04:47:10.806Z,49.20
2022-08-04T04:49:46.246Z,48.60
2022-08-04T04:52:19.129Z,60.40
2022-08-04T04:54:55.108Z,48.80
2022-08-04T04:57:54.715Z,48.10
2022-08-04T05:00:16.418Z,60.00
2022-08-04T05:03:09.133Z,48.00
2022-08-04T05:06:10.347Z,52.00
2022-08-04T05:09:17.771Z,60.10
2022-08-04T05:11:57.873Z,63.00
2022-08-04T05:14:40.617Z,59.10
2022-08-04T05:17:20.003Z,59.80
2022-08-04T05:20:01.644Z,48.20
2022-08-04T05:22:33.642Z,63.10
2022-08-04T05:25:07.115Z,59.00
2022-08-04T05:27:40.172Z,59.90
2022-08-04T05:30:10.240Z,60.20
2022-08-04T05:32:46.152Z,60.20
2022-08-04T05:35:38.973Z,63.80
2022-08-04T05:38:11.920Z,63.50
2022-08-04T05:40:40.646Z,48.30
2022-08-04T05:43:09.116Z,59.10
2022-08-04T05:45:39.023Z,54.50
2022-08-04T05:48:10.185Z,59.10
2022-08-04T05:50:39.700Z,58.50
2022-08-04T05:53:52.201Z,47.10
2022-08-04T05:56:20.499Z,62.00
2022-08-04T05:58:50.384Z,58.80
2022-08-04T06:01:20.072Z,58.60
2022-08-04T06:03:54.348Z,47.00
2022-08-04T06:08:56.970Z,46.80
2022-08-04T06:11:29.227Z,58.20
2022-08-04T06:13:59.928Z,46.70
2022-08-04T06:16:33.745Z,46.60
2022-08-04T06:20:00.307Z,46.90
2022-08-04T06:22:00.224Z,57.30
2022-08-04T06:24:30.743Z,47.10
2022-08-04T06:29:34.252Z,57.90
2022-08-04T06:35:04.784Z,56.70
2022-08-04T06:37:42.130Z,46.70
2022-08-04T06:40:30.759Z,49.70
2022-08-04T06:43:06.183Z,45.40
2022-08-04T06:45:41.148Z,48.30
2022-08-04T06:48:17.378Z,46.70
2022-08-04T06:51:26.163Z,46.50
2022-08-04T06:58:42.048Z,46.20
2022-08-04T07:01:43.622Z,46.40
2022-08-04T07:04:12.951Z,46.40
2022-08-04T07:06:44.829Z,46.20
2022-08-04T07:09:13.108Z,56.30
2022-08-04T07:14:14.015Z,46.40
2022-08-04T07:16:43.806Z,47.70
2022-08-04T07:22:17.779Z,45.50
2022-08-04T07:24:42.651Z,48.40
2022-08-04T07:29:42.089Z,45.10
2022-08-04T07:32:13.830Z,45.90
2022-08-04T07:34:43.002Z,44.30
2022-08-04T07:37:20.129Z,45.20
2022-08-04T07:42:20.531Z,56.50
2022-08-04T07:49:58.009Z,45.70
2022-08-04T07:52:29.612Z,55.10
2022-08-04T08:00:14.321Z,54.60
2022-08-04T08:02:46.820Z,44.40
2022-08-04T08:05:19.800Z,44.40
2022-08-04T08:07:54.809Z,44.10
2022-08-04T08:10:33.326Z,54.30
2022-08-04T08:15:48.101Z,52.60
2022-08-04T08:20:48.240Z,43.10
2022-08-04T08:23:21.799Z,42.80
2022-08-04T08:25:51.303Z,51.80
2022-08-04T08:30:53.586Z,51.40
2022-08-04T08:33:22.956Z,41.50
2022-08-04T08:35:55.063Z,41.10
2022-08-04T08:38:43.165Z,41.40
2022-08-04T08:41:44.975Z,41.20
2022-08-04T08:44:37.653Z,49.60
2022-08-04T08:47:21.633Z,48.80
2022-08-04T08:50:06.296Z,51.30
2022-08-04T08:52:57.429Z,38.10
2022-08-04T08:55:43.818Z,45.80
2022-08-04T08:58:29.655Z,37.30
2022-08-04T09:01:06.276Z,37.90
2022-08-04T09:04:23.681Z,36.70
2022-08-04T09:07:09.891Z,36.50
2022-08-04T09:09:50.472Z,36.60
2022-08-04T09:12:30.012Z,43.60
2022-08-04T09:15:06.662Z,35.70
2022-08-04T09:17:44.187Z,35.30
2022-08-04T09:20:19.780Z,33.70
2022-08-04T09:22:52.317Z,34.00
2022-08-04T09:25:26.339Z,33.80
2022-08-04T09:28:00.724Z,33.80
2022-08-04T09:30:39.877Z,31.60
2022-08-04T09:33:17.317Z,31.30
2022-08-04T09:35:59.932Z,31.90
2022-08-04T09:38:43.871Z,31.30
2022-08-04T09:41:48.654Z,37.20
2022-08-04T09:44:52.723Z,33.80
2022-08-04T09:47:40.343Z,29.30
2022-08-04T09:50:24.863Z,29.30
2022-08-04T09:53:11.905Z,28.80
2022-08-04T09:55:53.479Z,27.40
2022-08-04T09:58:45.796Z,27.80
2022-08-04T10:01:24.131Z,32.80
2022-08-04T10:03:55.778Z,30.00
2022-08-04T10:06:44.119Z,26.40
2022-08-04T10:09:40.034Z,25.60
2022-08-04T10:12:28.150Z,32.60
2022-08-04T10:15:24.436Z,28.80
2022-08-04T10:18:16.005Z,28.00
2022-08-04T10:21:00.073Z,24.00
2022-08-04T10:23:55.931Z,24.50
2022-08-04T10:26:38.435Z,23.30
2022-08-04T10:29:28.752Z,23.50
2022-08-04T10:32:16.636Z,23.60
2022-08-04T10:35:04.318Z,26.00
2022-08-04T10:37:59.944Z,28.40
2022-08-04T10:40:49.506Z,22.40
2022-08-04T10:43:30.854Z,22.20
2022-08-04T10:46:13.299Z,25.10
2022-08-04T10:49:21.793Z,23.50
2022-08-04T10:52:03.178Z,26.60
2022-08-04T10:54:47.704Z,27.40
2022-08-04T10:57:32.224Z,23.50
2022-08-04T11:00:04.731Z,24.00
2022-08-04T11:02:41.643Z,24.30
2022-08-04T11:05:43.794Z,25.50
2022-08-04T11:08:21.737Z,23.00
2022-08-04T11:11:03.438Z,23.10
2022-08-04T11:13:42.760Z,22.50
2022-08-04T11:16:26.835Z,23.60
2022-08-04T11:19:17.225Z,27.70
2022-08-04T11:21:59.622Z,29.50
2022-08-04T11:24:38.245Z,24.30
2022-08-04T11:27:15.103Z,29.70
2022-08-04T11:29:59.899Z,22.10
2022-08-04T11:32:36.062Z,21.60
2022-08-04T11:35:13.619Z,22.50
2022-08-04T11:37:50.230Z,22.20
2022-08-04T11:40:29.341Z,21.30
2022-08-04T11:43:08.778Z,24.00
2022-08-04T11:46:00.673Z,21.20
2022-08-04T11:48:37.645Z,22.20
2022-08-04T11:51:14.164Z,20.90
2022-08-04T11:53:48.376Z,21.40
2022-08-04T11:56:36.887Z,21.70
2022-08-04T11:59:08.813Z,22.00
2022-08-04T12:01:50.085Z,22.10
2022-08-04T12:04:36.890Z,22.80
2022-08-04T12:07:31.098Z,24.00
2022-08-04T12:10:10.723Z,22.20
2022-08-04T12:12:50.927Z,23.60
2022-08-04T12:15:25.160Z,22.00
2022-08-04T12:18:10.768Z,21.70
2022-08-04T12:20:46.205Z,21.80
2022-08-04T12:23:34.315Z,24.00
2022-08-04T12:26:07.762Z,22.50
2022-08-04T12:29:09.518Z,25.00
2022-08-04T12:32:01.311Z,22.00
2022-08-04T12:34:41.860Z,25.00
2022-08-04T12:37:29.187Z,21.30
2022-08-04T12:40:30.057Z,21.00
2022-08-04T12:43:54.334Z,22.60
2022-08-04T12:47:26.466Z,20.80
2022-08-04T12:50:01.072Z,20.80
2022-08-04T12:55:29.015Z,21.80
2022-08-04T12:57:58.830Z,21.70
2022-08-04T13:00:35.399Z,22.70
2022-08-04T13:03:15.277Z,21.40
2022-08-04T13:06:10.092Z,21.60
2022-08-04T13:08:41.525Z,20.50
2022-08-04T13:11:14.653Z,23.70
2022-08-04T13:14:17.250Z,20.10
2022-08-04T13:19:17.195Z,19.70
2022-08-04T13:22:03.081Z,22.30
2022-08-04T13:24:37.589Z,19.20
2022-08-04T13:27:24.224Z,19.40
2022-08-04T13:30:00.785Z,22.50
2022-08-04T13:32:37.594Z,20.30
2022-08-04T13:35:10.419Z,22.50
2022-08-04T13:37:42.123Z,23.00
2022-08-04T13:40:16.453Z,22.50
2022-08-04T13:42:49.026Z,19.70
2022-08-04T13:45:34.929Z,19.70
2022-08-04T13:48:15.722Z,21.60
2022-08-04T13:51:05.056Z,19.60
2022-08-04T13:53:36.293Z,22.20
2022-08-04T13:56:11.391Z,21.60
2022-08-04T13:58:46.427Z,19.10
2022-08-04T14:01:40.361Z,20.40
2022-08-04T14:04:31.519Z,18.80
2022-08-04T14:07:16.213Z,18.90
2022-08-04T14:10:03.328Z,21.00
2022-08-04T14:12:37.643Z,19.60
2022-08-04T14:16:01.977Z,19.70
2022-08-04T14:18:22.565Z,20.80
2022-08-04T14:21:02.819Z,19.20
2022-08-04T14:23:48.061Z,22.60
2022-08-04T14:26:18.791Z,22.70
2022-08-04T14:29:01.161Z,19.50
2022-08-04T14:34:29.435Z,22.20
2022-08-04T14:37:17.959Z,19.20
2022-08-04T14:40:18.402Z,19.40
2022-08-04T14:42:55.503Z,19.40
2022-08-04T14:45:54.092Z,22.30
2022-08-04T14:48:26.531Z,23.10
2022-08-04T14:50:55.370Z,25.50
2022-08-04T14:53:29.510Z,22.00
2022-08-04T14:56:00.899Z,22.00
2022-08-04T14:58:36.059Z,19.40
2022-08-04T15:01:10.739Z,19.60
2022-08-04T15:03:49.931Z,21.60
2022-08-04T15:06:23.202Z,19.80
2022-08-04T15:11:25.199Z,19.30
2022-08-04T15:13:53.522Z,21.90
2022-08-04T15:16:26.241Z,22.20
2022-08-04T15:18:57.011Z,19.80
2022-08-04T15:21:29.036Z,19.70
2022-08-04T15:23:58.078Z,25.30
2022-08-04T15:26:33.669Z,19.80
2022-08-04T15:29:13.127Z,22.10
2022-08-04T15:32:07.568Z,21.90
2022-08-04T15:34:46.855Z,19.40
2022-08-04T15:37:19.025Z,19.70
2022-08-04T15:39:54.045Z,18.80
2022-08-04T15:42:36.758Z,19.40
2022-08-04T15:45:19.086Z,20.50
2022-08-04T15:48:29.631Z,19.20
2022-08-04T15:51:08.389Z,19.70
2022-08-04T15:54:30.617Z,21.70
2022-08-04T15:57:03.974Z,19.30
2022-08-04T16:00:00.322Z,21.60
2022-08-04T16:03:07.195Z,22.30
2022-08-04T16:05:40.352Z,19.80
2022-08-04T16:08:18.941Z,27.50
2022-08-04T16:10:49.076Z,23.50
2022-08-04T16:13:20.317Z,20.20
2022-08-04T16:15:52.921Z,20.20
2022-08-04T16:18:26.431Z,20.20
2022-08-04T16:20:58.048Z,22.70
2022-08-04T16:24:06.378Z,22.80
2022-08-04T16:26:55.050Z,27.90
2022-08-04T16:29:35.924Z,21.20
2022-08-04T16:32:20.282Z,23.70
2022-08-04T16:34:54.163Z,21.20
2022-08-04T16:37:24.777Z,31.20
2022-08-04T16:40:37.640Z,23.80
2022-08-04T16:43:09.623Z,23.60
2022-08-04T16:46:02.731Z,27.50
2022-08-04T16:48:33.612Z,27.00
2022-08-04T16:51:06.622Z,23.20
2022-08-04T16:53:57.954Z,23.10
2022-08-04T16:56:40.171Z,28.90
2022-08-04T16:59:13.490Z,23.60
2022-08-04T17:01:48.101Z,20.30
2022-08-04T17:04:18.110Z,20.20
2022-08-04T17:06:47.615Z,20.00
2022-08-04T17:09:18.431Z,23.20
2022-08-04T17:15:48.283Z,20.00
2022-08-04T17:18:18.748Z,20.00
2022-08-04T17:21:01.040Z,20.10
2022-08-04T17:24:15.325Z,20.20
2022-08-04T17:26:40.516Z,27.80
2022-08-04T17:31:40.696Z,24.30
2022-08-04T17:34:19.155Z,24.40
2022-08-04T17:37:31.186Z,20.70
2022-08-04T17:39:51.907Z,23.70
2022-08-04T17:42:31.285Z,20.40
2022-08-04T17:45:49.119Z,23.90
2022-08-04T17:50:29.861Z,20.20
2022-08-04T17:53:11.940Z,24.10
2022-08-04T17:55:42.421Z,24.20
2022-08-04T17:58:23.150Z,23.00
2022-08-04T18:01:24.436Z,20.70
2022-08-04T18:04:00.014Z,21.30
2022-08-04T18:09:23.072Z,21.00
2022-08-04T18:11:59.526Z,21.90
2022-08-04T18:14:30.611Z,21.40
2022-08-04T18:24:56.520Z,22.20
2022-08-04T18:27:50.549Z,21.70
2022-08-04T18:30:53.135Z,22.00
2022-08-04T18:38:55.768Z,23.40
2022-08-04T18:42:04.385Z,23.00
2022-08-04T18:47:54.458Z,23.80
2022-08-04T18:58:28.249Z,26.30
2022-08-04T19:01:00.812Z,34.20
2022-08-04T19:03:35.677Z,26.80
2022-08-04T19:06:08.511Z,27.50
2022-08-04T19:11:37.904Z,33.10
2022-08-04T19:14:27.880Z,27.40
2022-08-04T19:27:38.801Z,28.10
2022-08-04T19:30:39.652Z,34.10
2022-08-04T19:33:59.543Z,28.10
2022-08-04T19:36:27.878Z,34.60
2022-08-04T19:38:57.760Z,28.10
2022-08-04T19:41:32.041Z,34.80
2022-08-04T19:50:03.153Z,34.50
2022-08-04T19:54:35.494Z,34.00
2022-08-04T19:57:11.771Z,42.80
2022-08-04T20:04:49.890Z,34.30
2022-08-04T20:07:23.350Z,34.70
2022-08-04T20:10:05.177Z,29.00
2022-08-04T20:15:02.727Z,28.70
2022-08-04T20:20:25.374Z,28.70
2022-08-04T20:26:09.110Z,28.60
2022-08-04T20:37:56.994Z,28.80
2022-08-04T20:45:55.876Z,28.70
2022-08-04T20:48:59.060Z,28.70
2022-08-04T20:52:44.313Z,28.70
2022-08-04T20:58:47.842Z,28.70
2022-08-04T21:04:02.306Z,35.00
2022-08-04T21:06:34.438Z,36.10
2022-08-04T21:11:57.272Z,30.00
2022-08-04T21:22:10.200Z,28.30
2022-08-04T21:27:27.422Z,27.80
2022-08-04T21:35:48.993Z,29.10
2022-08-04T21:41:01.943Z,29.30
2022-08-04T21:43:42.490Z,40.50
2022-08-04T21:48:51.156Z,36.50
2022-08-04T21:52:00.204Z,29.70
2022-08-04T21:59:23.960Z,29.90
2022-08-04T22:02:02.916Z,29.70
2022-08-04T22:04:33.267Z,30.30
2022-08-04T22:09:38.548Z,33.40
2022-08-04T22:12:15.950Z,33.60
2022-08-04T22:14:59.205Z,29.70
2022-08-04T22:31:23.739Z,28.70
2022-08-04T22:33:56.113Z,28.80
2022-08-04T22:46:50.558Z,29.80
2022-08-04T22:54:21.935Z,29.80
2022-08-04T22:59:24.822Z,37.40
2022-08-04T23:01:59.672Z,37.90
2022-08-04T23:04:30.749Z,38.40
2022-08-04T23:07:01.479Z,38.20
2022-08-04T23:09:50.197Z,39.20
2022-08-04T23:14:56.431Z,41.20
2022-08-04T23:17:28.193Z,32.70
2022-08-04T23:19:57.730Z,39.90
2022-08-04T23:22:41.091Z,33.80
2022-08-04T23:25:15.746Z,39.50
2022-08-04T23:30:21.933Z,40.10
2022-08-04T23:32:55.017Z,40.10
2022-08-04T23:35:23.818Z,40.30
2022-08-04T23:37:56.154Z,32.30
2022-08-04T23:46:21.637Z,33.20
2022-08-04T23:48:52.249Z,41.70
2022-08-04T23:54:01.564Z,33.00
2022-08-04T23:56:37.834Z,42.30
2022-08-04T23:59:06.188Z,42.90
